createdAt,value
2023-02-03T00:00:28.849Z,98713.50
2023-02-03T00:02:57.533Z,98705.69
2023-02-03T00:05:24.960Z,98696.09
2023-02-03T00:07:52.357Z,98700.28
2023-02-03T00:10:21.493Z,98686.59
2023-02-03T00:12:49.908Z,98694.88
2023-02-03T00:15:17.072Z,98687.03
2023-02-03T00:17:44.123Z,98684.19
2023-02-03T00:20:12.043Z,98688.53
2023-02-03T00:22:39.074Z,98683.25
2023-02-03T00:25:06.769Z,98675.88
2023-02-03T00:27:33.811Z,98670.81
2023-02-03T00:30:00.920Z,98665.84
2023-02-03T00:32:28.205Z,98655.78
2023-02-03T00:34:55.343Z,98657.75
2023-02-03T00:37:23.228Z,98656.69
2023-02-03T00:39:50.326Z,98648.00
2023-02-03T00:42:17.386Z,98648.13
2023-02-03T00:44:44.556Z,98642.44
2023-02-03T00:47:11.619Z,98633.91
2023-02-03T00:49:38.825Z,98644.97
2023-02-03T00:52:05.895Z,98633.88
2023-02-03T00:54:33.817Z,98637.13
2023-02-03T00:57:00.956Z,98632.81
2023-02-03T00:59:28.002Z,98628.19
2023-02-03T01:01:55.095Z,98616.03
2023-02-03T01:04:22.310Z,98609.03
2023-02-03T01:06:50.155Z,98614.25
2023-02-03T01:09:17.727Z,98610.50
2023-02-03T01:11:45.090Z,98595.53
2023-02-03T01:14:12.368Z,98585.91
2023-02-03T01:16:40.169Z,98580.84
2023-02-03T01:19:07.353Z,98565.25
2023-02-03T01:21:36.442Z,98556.56
2023-02-03T01:24:03.807Z,98555.97
2023-02-03T01:26:31.054Z,98549.97
2023-02-03T01:29:00.122Z,98536.34
2023-02-03T01:31:36.935Z,98522.53
2023-02-03T01:34:04.349Z,98523.72
2023-02-03T01:36:32.717Z,98529.91
2023-02-03T01:39:00.411Z,98523.88
2023-02-03T01:41:32.992Z,98521.16
2023-02-03T01:44:01.159Z,98522.06
2023-02-03T01:46:48.759Z,98520.72
2023-02-03T01:49:25.212Z,98525.50
2023-02-03T01:51:53.459Z,98514.53
2023-02-03T01:54:30.328Z,98501.59
2023-02-03T01:57:02.128Z,98499.97
2023-02-03T01:59:30.366Z,98515.09
2023-02-03T02:01:58.654Z,98510.56
2023-02-03T02:04:32.063Z,98487.13
2023-02-03T02:06:59.397Z,98478.41
2023-02-03T02:09:27.241Z,98476.28
2023-02-03T02:11:54.760Z,98470.72
2023-02-03T02:14:21.991Z,98480.44
2023-02-03T02:17:06.281Z,98497.81
2023-02-03T02:19:54.207Z,98496.28
2023-02-03T02:22:21.197Z,98492.78
2023-02-03T02:25:04.719Z,98488.53
2023-02-03T02:28:09.597Z,98484.44
2023-02-03T02:30:42.300Z,98475.69
2023-02-03T02:33:41.222Z,98484.56
2023-02-03T02:36:39.097Z,98483.66
2023-02-03T02:39:24.683Z,98474.31
2023-02-03T02:41:57.409Z,98481.50
2023-02-03T02:44:36.056Z,98471.00
2023-02-03T02:47:08.952Z,98465.13
2023-02-03T02:49:42.907Z,98458.22
2023-02-03T02:52:11.306Z,98466.88
2023-02-03T02:54:40.884Z,98462.97
2023-02-03T02:57:10.353Z,98456.66
2023-02-03T02:59:38.233Z,98448.81
2023-02-03T03:02:05.325Z,98437.06
2023-02-03T03:04:34.020Z,98435.41
2023-02-03T03:07:17.249Z,98441.81
2023-02-03T03:09:51.000Z,98444.53
2023-02-03T03:12:23.786Z,98439.69
2023-02-03T03:14:56.212Z,98443.91
2023-02-03T03:17:30.444Z,98439.03
2023-02-03T03:20:02.504Z,98442.03
2023-02-03T03:22:33.730Z,98440.06
2023-02-03T03:25:05.470Z,98437.66
2023-02-03T03:27:38.015Z,98451.94
2023-02-03T03:30:15.163Z,98443.34
2023-02-03T03:32:42.315Z,98454.44
2023-02-03T03:35:09.538Z,98441.38
2023-02-03T03:37:41.887Z,98447.34
2023-02-03T03:40:35.277Z,98441.50
2023-02-03T03:43:16.575Z,98443.75
2023-02-03T03:45:52.351Z,98428.97
2023-02-03T03:48:35.644Z,98416.47
2023-02-03T03:51:30.358Z,98436.00
2023-02-03T03:54:01.800Z,98435.53
2023-02-03T03:56:34.460Z,98441.22
2023-02-03T03:59:03.383Z,98440.31
2023-02-03T04:01:30.941Z,98423.31
2023-02-03T04:04:02.288Z,98405.38
2023-02-03T04:06:29.333Z,98418.72
2023-02-03T04:08:56.463Z,98397.78
2023-02-03T04:11:42.056Z,98384.84
2023-02-03T04:14:09.394Z,98386.31
2023-02-03T04:16:36.480Z,98376.97
2023-02-03T04:19:04.436Z,98368.38
2023-02-03T04:21:31.928Z,98363.53
2023-02-03T04:23:58.983Z,98353.44
2023-02-03T04:26:26.043Z,98343.16
2023-02-03T04:28:53.087Z,98340.25
2023-02-03T04:31:20.222Z,98337.34
2023-02-03T04:33:47.394Z,98334.16
2023-02-03T04:36:15.218Z,98339.41
2023-02-03T04:38:42.333Z,98342.38
2023-02-03T04:41:09.400Z,98344.13
2023-02-03T04:43:36.664Z,98372.28
2023-02-03T04:46:03.800Z,98366.84
2023-02-03T04:48:30.890Z,98360.97
2023-02-03T04:51:04.838Z,98369.34
2023-02-03T04:53:32.243Z,98373.38
2023-02-03T04:55:59.427Z,98371.69
2023-02-03T04:58:27.124Z,98371.50
2023-02-03T05:00:54.940Z,98368.31
2023-02-03T05:03:24.148Z,98339.25
2023-02-03T05:05:52.783Z,98351.09
2023-02-03T05:08:20.159Z,98341.00
2023-02-03T05:10:47.299Z,98362.19
2023-02-03T05:13:14.361Z,98381.47
2023-02-03T05:15:41.395Z,98365.94
2023-02-03T05:18:08.484Z,98348.19
2023-02-03T05:20:36.862Z,98348.94
2023-02-03T05:23:04.600Z,98329.97
2023-02-03T05:25:31.695Z,98340.50
2023-02-03T05:27:59.550Z,98349.59
2023-02-03T05:30:26.982Z,98327.72
2023-02-03T05:32:54.161Z,98316.88
2023-02-03T05:35:21.467Z,98313.16
2023-02-03T05:37:49.074Z,98298.38
2023-02-03T05:40:34.534Z,98303.53
2023-02-03T05:43:01.650Z,98299.59
2023-02-03T05:45:28.693Z,98304.06
2023-02-03T05:47:55.776Z,98295.19
2023-02-03T05:50:22.987Z,98306.59
2023-02-03T05:52:50.101Z,98302.44
2023-02-03T05:55:18.641Z,98310.84
2023-02-03T05:57:45.648Z,98308.63
2023-02-03T06:00:13.478Z,98315.53
2023-02-03T06:02:40.564Z,98313.28
2023-02-03T06:05:08.507Z,98313.28
2023-02-03T06:07:35.649Z,98319.75
2023-02-03T06:10:02.887Z,98317.78
2023-02-03T06:12:30.032Z,98316.81
2023-02-03T06:14:57.198Z,98322.50
2023-02-03T06:17:24.248Z,98324.75
2023-02-03T06:19:51.265Z,98309.50
2023-02-03T06:22:18.371Z,98293.22
2023-02-03T06:24:46.186Z,98292.75
2023-02-03T06:27:13.235Z,98273.03
2023-02-03T06:29:41.182Z,98273.28
2023-02-03T06:32:09.197Z,98276.00
2023-02-03T06:34:36.254Z,98280.50
2023-02-03T06:37:03.451Z,98283.72
2023-02-03T06:39:30.489Z,98276.56
2023-02-03T06:41:57.614Z,98263.00
2023-02-03T06:44:24.673Z,98258.56
2023-02-03T06:46:52.222Z,98245.03
2023-02-03T06:49:19.261Z,98255.38
2023-02-03T06:51:46.446Z,98252.22
2023-02-03T06:54:14.358Z,98240.59
2023-02-03T06:56:41.453Z,98239.41
2023-02-03T06:59:10.076Z,98242.84
2023-02-03T07:01:37.764Z,98258.91
2023-02-03T07:04:04.981Z,98241.88
2023-02-03T07:06:34.263Z,98247.09
2023-02-03T07:09:04.004Z,98241.97
2023-02-03T07:11:31.482Z,98243.19
2023-02-03T07:13:58.665Z,98244.66
2023-02-03T07:16:27.481Z,98229.88
2023-02-03T07:18:54.694Z,98229.88
2023-02-03T07:21:21.783Z,98223.22
2023-02-03T07:23:49.513Z,98214.88
2023-02-03T07:26:17.270Z,98202.53
2023-02-03T07:28:44.403Z,98216.38
2023-02-03T07:31:11.513Z,98203.81
2023-02-03T07:33:39.277Z,98206.03
2023-02-03T07:36:07.407Z,98200.63
2023-02-03T07:38:34.463Z,98207.78
2023-02-03T07:41:01.551Z,98210.03
2023-02-03T07:43:28.626Z,98195.75
2023-02-03T07:45:55.699Z,98196.19
2023-02-03T07:48:23.352Z,98201.16
2023-02-03T07:50:50.832Z,98188.81
2023-02-03T07:53:17.946Z,98187.31
2023-02-03T07:55:45.207Z,98182.19
2023-02-03T07:58:12.390Z,98177.75
2023-02-03T08:00:39.447Z,98190.09
2023-02-03T08:03:06.572Z,98186.16
2023-02-03T08:05:33.619Z,98195.75
2023-02-03T08:08:00.721Z,98197.75
2023-02-03T08:10:28.311Z,98188.13
2023-02-03T08:12:56.178Z,98183.19
2023-02-03T08:15:23.303Z,98168.38
2023-02-03T08:17:50.544Z,98168.38
2023-02-03T08:20:17.999Z,98175.53
2023-02-03T08:22:45.133Z,98175.03
2023-02-03T08:25:12.649Z,98165.91
2023-02-03T08:27:40.360Z,98165.41
2023-02-03T08:30:10.442Z,98154.28
2023-02-03T08:32:37.487Z,98149.13
2023-02-03T08:35:04.954Z,98161.47
2023-02-03T08:37:32.628Z,98148.66
2023-02-03T08:40:00.191Z,98158.81
2023-02-03T08:42:27.310Z,98146.97
2023-02-03T08:44:54.457Z,98159.81
2023-02-03T08:47:21.476Z,98159.56
2023-02-03T08:49:48.676Z,98152.16
2023-02-03T08:52:18.118Z,98153.16
2023-02-03T08:54:47.389Z,98145.53
2023-02-03T08:57:14.715Z,98142.13
2023-02-03T08:59:43.190Z,98127.56
2023-02-03T09:02:14.376Z,98137.47
2023-02-03T09:04:41.467Z,98133.53
2023-02-03T09:07:08.654Z,98129.84
2023-02-03T09:09:35.730Z,98136.75
2023-02-03T09:12:05.366Z,98136.75
2023-02-03T09:14:33.231Z,98122.72
2023-02-03T09:17:01.741Z,98118.78
2023-02-03T09:19:29.037Z,98115.56
2023-02-03T09:21:57.320Z,98103.00
2023-02-03T09:24:24.706Z,98090.91
2023-02-03T09:26:51.955Z,98086.97
2023-02-03T09:29:19.451Z,98088.47
2023-02-03T09:31:49.087Z,98085.03
2023-02-03T09:34:16.220Z,98078.09
2023-02-03T09:36:43.315Z,98073.66
2023-02-03T09:39:10.635Z,98063.81
2023-02-03T09:42:09.220Z,98054.94
2023-02-03T09:44:36.188Z,98059.63
2023-02-03T09:47:11.017Z,98063.59
2023-02-03T09:49:41.563Z,98055.69
2023-02-03T09:52:16.803Z,98062.38
2023-02-03T09:54:52.573Z,98045.63
2023-02-03T09:57:25.207Z,98056.50
2023-02-03T09:59:54.476Z,98052.28
2023-02-03T10:02:24.332Z,98052.53
2023-02-03T10:04:59.731Z,98059.44
2023-02-03T10:07:32.599Z,98053.28
2023-02-03T10:10:15.025Z,98051.81
2023-02-03T10:12:56.618Z,98055.00
2023-02-03T10:15:38.388Z,98042.94
2023-02-03T10:18:14.335Z,98045.91
2023-02-03T10:20:50.587Z,98022.69
2023-02-03T10:23:25.463Z,98026.63
2023-02-03T10:25:57.876Z,98019.50
2023-02-03T10:28:28.444Z,98013.34
2023-02-03T10:30:57.523Z,98009.13
2023-02-03T10:33:30.133Z,98006.41
2023-02-03T10:36:04.939Z,98017.78
2023-02-03T10:38:38.530Z,98008.63
2023-02-03T10:41:05.637Z,98012.81
2023-02-03T10:43:48.028Z,98012.06
2023-02-03T10:46:15.683Z,97988.81
2023-02-03T10:48:43.009Z,97983.16
2023-02-03T10:51:21.305Z,97976.69
2023-02-03T10:53:48.804Z,97952.03
2023-02-03T10:56:18.202Z,97960.63
2023-02-03T10:58:56.521Z,97945.84
2023-02-03T11:01:27.485Z,97956.69
2023-02-03T11:04:04.192Z,97955.69
2023-02-03T11:06:33.659Z,97933.47
2023-02-03T11:09:00.765Z,97945.56
2023-02-03T11:11:31.388Z,97950.50
2023-02-03T11:14:01.470Z,97946.78
2023-02-03T11:16:29.829Z,97952.97
2023-02-03T11:19:02.674Z,97946.78
2023-02-03T11:21:32.028Z,97942.09
2023-02-03T11:24:21.109Z,97952.97
2023-02-03T11:26:55.357Z,97942.84
2023-02-03T11:29:24.659Z,97942.09
2023-02-03T11:31:53.528Z,97935.94
2023-02-03T11:34:30.438Z,97952.97
2023-02-03T11:36:57.530Z,97949.75
2023-02-03T11:39:35.408Z,97937.16
2023-02-03T11:42:03.431Z,97943.31
2023-02-03T11:44:33.746Z,97935.91
2023-02-03T11:47:08.525Z,97926.56
2023-02-03T11:50:07.600Z,97922.34
2023-02-03T11:52:44.070Z,97916.41
2023-02-03T11:55:32.770Z,97921.31
2023-02-03T11:58:13.866Z,97928.72
2023-02-03T12:00:50.420Z,97911.97
2023-02-03T12:03:51.087Z,97918.16
2023-02-03T12:06:28.226Z,97906.56
2023-02-03T12:09:20.623Z,97892.25
2023-02-03T12:12:18.431Z,97900.38
2023-02-03T12:15:05.533Z,97894.97
2023-02-03T12:17:56.894Z,97897.19
2023-02-03T12:20:41.235Z,97892.00
2023-02-03T12:23:35.731Z,97884.09
2023-02-03T12:26:20.885Z,97904.09
2023-02-03T12:29:13.356Z,97898.19
2023-02-03T12:32:07.798Z,97894.97
2023-02-03T12:34:41.389Z,97904.09
2023-02-03T12:37:18.064Z,97898.19
2023-02-03T12:39:50.222Z,97895.47
2023-02-03T12:42:27.827Z,97907.06
2023-02-03T12:45:00.141Z,97894.00
2023-02-03T12:47:43.027Z,97885.13
2023-02-03T12:50:26.575Z,97883.41
2023-02-03T12:53:14.887Z,97872.78
2023-02-03T12:55:46.494Z,97864.63
2023-02-03T12:58:19.640Z,97845.63
2023-02-03T13:00:53.378Z,97847.59
2023-02-03T13:03:43.201Z,97843.19
2023-02-03T13:06:44.390Z,97847.38
2023-02-03T13:09:25.725Z,97843.44
2023-02-03T13:11:58.260Z,97835.75
2023-02-03T13:14:47.652Z,97836.03
2023-02-03T13:17:24.495Z,97838.25
2023-02-03T13:20:00.668Z,97842.69
2023-02-03T13:22:27.926Z,97858.47
2023-02-03T13:25:16.984Z,97858.75
2023-02-03T13:28:02.561Z,97855.28
2023-02-03T13:30:46.618Z,97880.72
2023-02-03T13:33:46.818Z,97891.56
2023-02-03T13:36:51.322Z,97885.69
2023-02-03T13:39:32.671Z,97896.28
2023-02-03T13:42:22.680Z,97907.38
2023-02-03T13:44:54.185Z,97902.97
2023-02-03T13:47:27.162Z,97907.91
2023-02-03T13:49:59.955Z,97904.19
2023-02-03T13:52:30.288Z,97885.41
2023-02-03T13:54:57.804Z,97904.69
2023-02-03T13:57:38.490Z,97898.75
2023-02-03T14:01:03.992Z,97888.13
2023-02-03T14:03:30.983Z,97887.41
2023-02-03T14:05:59.334Z,97895.03
2023-02-03T14:08:26.354Z,97885.41
2023-02-03T14:11:34.173Z,97905.91
2023-02-03T14:14:04.378Z,97914.56
2023-02-03T14:16:44.732Z,97914.56
2023-02-03T14:19:13.505Z,97896.03
2023-02-03T14:21:53.296Z,97908.88
2023-02-03T14:24:21.585Z,97910.88
2023-02-03T14:26:53.346Z,97914.06
2023-02-03T14:29:29.603Z,97913.31
2023-02-03T14:31:59.513Z,97911.34
2023-02-03T14:34:35.160Z,97899.25
2023-02-03T14:37:32.109Z,97931.88
2023-02-03T14:40:17.313Z,97931.88
2023-02-03T14:43:15.191Z,97936.56
2023-02-03T14:45:54.657Z,97936.56
2023-02-03T14:48:37.581Z,97932.59
2023-02-03T14:51:23.325Z,97929.88
2023-02-03T14:54:07.559Z,97950.88
2023-02-03T14:57:12.005Z,97938.50
2023-02-03T14:59:44.874Z,97949.13
2023-02-03T15:02:19.192Z,97947.41
2023-02-03T15:04:48.507Z,97953.34
2023-02-03T15:07:39.060Z,97954.31
2023-02-03T15:10:36.469Z,97982.72
2023-02-03T15:13:03.511Z,97970.84
2023-02-03T15:15:33.563Z,97976.03
2023-02-03T15:18:23.450Z,97962.69
2023-02-03T15:20:53.788Z,97986.88
2023-02-03T15:23:22.390Z,97985.63
2023-02-03T15:26:00.391Z,97993.53
2023-02-03T15:28:29.301Z,97997.50
2023-02-03T15:31:04.926Z,97996.50
2023-02-03T15:33:33.809Z,98005.88
2023-02-03T15:36:08.669Z,98015.00
2023-02-03T15:38:39.758Z,98014.50
2023-02-03T15:41:11.340Z,98017.22
2023-02-03T15:43:40.245Z,98022.84
2023-02-03T15:46:19.089Z,98022.63
2023-02-03T15:48:52.281Z,98029.78
2023-02-03T15:51:22.833Z,98036.91
2023-02-03T15:54:18.911Z,98038.63
2023-02-03T15:56:55.051Z,98037.34
2023-02-03T15:59:30.527Z,98047.47
2023-02-03T16:01:59.050Z,98038.59
2023-02-03T16:04:26.394Z,98039.81
2023-02-03T16:06:55.839Z,98051.16
2023-02-03T16:09:35.267Z,98058.56
2023-02-03T16:12:05.987Z,98067.94
2023-02-03T16:14:36.906Z,98070.41
2023-02-03T16:17:06.124Z,98077.03
2023-02-03T16:19:37.913Z,98069.19
2023-02-03T16:22:04.988Z,98074.59
2023-02-03T16:24:40.991Z,98080.03
2023-02-03T16:27:34.355Z,98063.75
2023-02-03T16:30:22.918Z,98073.38
2023-02-03T16:33:26.941Z,98078.06
2023-02-03T16:36:15.003Z,98073.13
2023-02-03T16:39:07.683Z,98063.47
2023-02-03T16:41:53.653Z,98065.44
2023-02-03T16:44:39.362Z,98070.13
2023-02-03T16:47:41.046Z,98071.63
2023-02-03T16:50:38.177Z,98067.41
2023-02-03T16:53:10.885Z,98074.81
2023-02-03T16:55:38.033Z,98076.31
2023-02-03T16:58:05.217Z,98080.53
2023-02-03T17:00:32.526Z,98085.19
2023-02-03T17:03:03.686Z,98094.34
2023-02-03T17:05:31.295Z,98099.03
2023-02-03T17:07:58.470Z,98090.41
2023-02-03T17:10:26.435Z,98094.09
2023-02-03T17:12:53.535Z,98092.63
2023-02-03T17:15:20.751Z,98092.63
2023-02-03T17:17:47.784Z,98096.56
2023-02-03T17:20:15.444Z,98095.09
2023-02-03T17:22:42.499Z,98103.47
2023-02-03T17:25:09.643Z,98112.38
2023-02-03T17:27:36.699Z,98119.75
2023-02-03T17:30:04.750Z,98108.66
2023-02-03T17:32:31.849Z,98123.72
2023-02-03T17:34:58.871Z,98125.19
2023-02-03T17:37:25.907Z,98120.75
2023-02-03T17:53:38.678Z,98154.25
2023-02-03T17:56:07.796Z,98158.94
2023-02-03T17:58:34.798Z,98173.00
2023-02-03T18:01:07.674Z,98176.94
2023-02-03T18:03:34.784Z,98181.63
2023-02-03T18:06:04.226Z,98188.56
2023-02-03T18:08:31.328Z,98194.72
2023-02-03T18:10:59.054Z,98201.63
2023-02-03T18:13:26.837Z,98212.75
2023-02-03T18:15:56.490Z,98219.41
2023-02-03T18:18:23.663Z,98216.22
2023-02-03T18:20:50.762Z,98230.25
2023-02-03T18:23:20.581Z,98219.41
2023-02-03T18:25:54.443Z,98224.84
2023-02-03T18:28:22.637Z,98224.09
2023-02-03T18:30:49.960Z,98223.34
2023-02-03T18:33:17.514Z,98239.63
2023-02-03T18:35:44.587Z,98252.47
2023-02-03T18:38:11.959Z,98243.09
2023-02-03T18:40:39.141Z,98243.56
2023-02-03T18:43:07.455Z,98249.75
2023-02-03T18:45:35.638Z,98257.88
2023-02-03T18:48:02.702Z,98244.31
2023-02-03T18:50:30.176Z,98265.28
2023-02-03T18:52:57.375Z,98262.56
2023-02-03T18:55:24.828Z,98269.22
2023-02-03T18:57:52.080Z,98280.09
2023-02-03T19:00:19.863Z,98274.66
2023-02-03T19:02:48.788Z,98273.66
2023-02-03T19:05:18.299Z,98280.56
2023-02-03T19:07:45.516Z,98289.94
2023-02-03T19:10:12.696Z,98284.97
2023-02-03T19:12:39.844Z,98294.34
2023-02-03T19:15:08.749Z,98290.88
2023-02-03T19:17:36.593Z,98271.88
2023-02-03T19:20:05.892Z,98279.50
2023-02-03T19:22:33.026Z,98292.34
2023-02-03T19:25:00.508Z,98296.28
2023-02-03T19:27:27.530Z,98290.56
2023-02-03T19:29:54.548Z,98301.16
2023-02-03T19:32:21.822Z,98309.03
2023-02-03T19:34:48.876Z,98300.63
2023-02-03T19:37:16.104Z,98307.25
2023-02-03T19:39:45.018Z,98311.19
2023-02-03T19:42:12.112Z,98323.28
2023-02-03T19:44:39.146Z,98306.25
2023-02-03T19:47:06.565Z,98321.78
2023-02-03T19:49:33.638Z,98323.03
2023-02-03T19:52:00.685Z,98314.63
2023-02-03T19:54:27.746Z,98311.91
2023-02-03T19:56:54.845Z,98310.88
2023-02-03T19:59:21.997Z,98315.56
2023-02-03T20:01:49.774Z,98307.16
2023-02-03T20:04:16.961Z,98309.38
2023-02-03T20:06:44.048Z,98303.22
2023-02-03T20:09:13.493Z,98316.78
2023-02-03T20:11:40.533Z,98322.69
2023-02-03T20:14:07.665Z,98328.59
2023-02-03T20:16:36.510Z,98334.50
2023-02-03T20:19:04.225Z,98335.19
2023-02-03T20:21:31.284Z,98339.84
2023-02-03T20:23:58.396Z,98345.28
2023-02-03T20:26:25.497Z,98355.56
2023-02-03T20:28:52.569Z,98349.41
2023-02-03T20:31:20.317Z,98349.88
2023-02-03T20:33:47.540Z,98346.66
2023-02-03T20:36:14.627Z,98355.72
2023-02-03T20:38:41.924Z,98347.06
2023-02-03T20:41:10.878Z,98348.28
2023-02-03T20:43:38.461Z,98348.75
2023-02-03T20:46:11.259Z,98358.56
2023-02-03T20:48:39.028Z,98362.41
2023-02-03T20:51:17.088Z,98358.91
2023-02-03T20:53:44.529Z,98360.06
2023-02-03T20:56:14.305Z,98370.28
2023-02-03T20:58:43.117Z,98378.31
2023-02-03T21:01:19.004Z,98377.97
2023-02-03T21:04:05.706Z,98366.75
2023-02-03T21:06:34.222Z,98375.09
2023-02-03T21:09:16.249Z,98369.59
2023-02-03T21:11:43.489Z,98362.84
2023-02-03T21:14:39.581Z,98372.41
2023-02-03T21:17:26.593Z,98364.19
2023-02-03T21:19:55.061Z,98369.81
2023-02-03T21:22:23.696Z,98368.00
2023-02-03T21:24:57.046Z,98358.88
2023-02-03T21:27:25.557Z,98365.50
2023-02-03T21:29:55.915Z,98354.56
2023-02-03T21:32:29.612Z,98357.28
2023-02-03T21:34:56.649Z,98359.25
2023-02-03T21:37:23.639Z,98360.94
2023-02-03T21:39:50.800Z,98367.09
2023-02-03T21:42:41.736Z,98357.47
2023-02-03T21:45:14.830Z,98363.38
2023-02-03T21:47:42.205Z,98373.16
2023-02-03T21:50:31.632Z,98371.38
2023-02-03T21:53:05.054Z,98381.94
2023-02-03T21:55:32.119Z,98387.25
2023-02-03T21:57:59.247Z,98378.88
2023-02-03T22:00:39.688Z,98382.03
2023-02-03T22:03:08.534Z,98385.50
2023-02-03T22:05:35.930Z,98386.97
2023-02-03T22:08:22.213Z,98387.44
2023-02-03T22:10:50.049Z,98394.78
2023-02-03T22:13:17.170Z,98402.91
2023-02-03T22:15:46.058Z,98410.59
2023-02-03T22:18:13.077Z,98411.34
2023-02-03T22:20:40.091Z,98410.13
2023-02-03T22:23:07.164Z,98422.91
2023-02-03T22:25:34.402Z,98426.38
2023-02-03T22:28:01.490Z,98424.56
2023-02-03T22:30:28.872Z,98436.63
2023-02-03T22:32:57.892Z,98435.88
2023-02-03T22:35:25.727Z,98443.25
2023-02-03T22:37:53.842Z,98452.56
2023-02-03T22:40:21.488Z,98452.28
2023-02-03T22:42:48.674Z,98455.91
2023-02-03T22:45:15.830Z,98454.41
2023-02-03T22:47:42.918Z,98464.69
2023-02-03T22:50:11.772Z,98474.19
2023-02-03T22:52:38.836Z,98471.94
2023-02-03T22:55:07.235Z,98468.22
2023-02-03T22:57:34.978Z,98481.91
2023-02-03T23:00:01.999Z,98464.94
2023-02-03T23:02:29.140Z,98468.84
2023-02-03T23:04:56.300Z,98480.13
2023-02-03T23:07:23.476Z,98476.69
2023-02-03T23:09:50.528Z,98474.44
2023-02-03T23:12:17.623Z,98474.59
2023-02-03T23:14:44.669Z,98480.94
2023-02-03T23:17:11.750Z,98483.38
2023-02-03T23:19:38.966Z,98486.22
2023-02-03T23:22:06.011Z,98491.63
2023-02-03T23:24:33.071Z,98494.06
2023-02-03T23:27:00.269Z,98495.56
2023-02-03T23:29:27.480Z,98497.03
2023-02-03T23:31:54.641Z,98503.19
2023-02-03T23:34:40.435Z,98507.88
2023-02-03T23:37:07.618Z,98506.66
2023-02-03T23:39:34.742Z,98508.16
2023-02-03T23:42:01.797Z,98501.56
2023-02-03T23:44:28.827Z,98500.50
2023-02-03T23:46:55.975Z,98501.25
2023-02-03T23:49:23.005Z,98500.97
2023-02-03T23:51:50.057Z,98503.66
2023-02-03T23:54:17.228Z,98504.13
2023-02-03T23:56:44.267Z,98497.97
2023-02-03T23:59:12.043Z,98497.22
